sensor_id;sensor_type;location;lat;lon;timestamp;temperature;humidity
3923;DHT22;1976;51.694;6.256;2023-08-08T00:02:05;14.90;99.90
3923;DHT22;1976;51.694;6.256;2023-08-08T00:04:31;14.90;99.90
3923;DHT22;1976;51.694;6.256;2023-08-08T00:06:57;14.90;99.90
3923;DHT22;1976;51.694;6.256;2023-08-08T00:09:23;14.80;99.90
3923;DHT22;1976;51.694;6.256;2023-08-08T00:11:48;14.80;99.90
3923;DHT22;1976;51.694;6.256;2023-08-08T00:14:14;14.80;99.90
3923;DHT22;1976;51.694;6.256;2023-08-08T00:16:41;14.80;99.90
3923;DHT22;1976;51.694;6.256;2023-08-08T00:19:07;14.80;99.90
3923;DHT22;1976;51.694;6.256;2023-08-08T00:21:32;14.80;99.90
3923;DHT22;1976;51.694;6.256;2023-08-08T00:23:58;14.70;99.90
3923;DHT22;1976;51.694;6.256;2023-08-08T00:26:24;14.70;99.90
3923;DHT22;1976;51.694;6.256;2023-08-08T00:28:49;14.70;99.90
3923;DHT22;1976;51.694;6.256;2023-08-08T00:31:15;14.60;99.90
3923;DHT22;1976;51.694;6.256;2023-08-08T00:33:43;14.60;99.90
3923;DHT22;1976;51.694;6.256;2023-08-08T00:36:08;14.50;99.90
3923;DHT22;1976;51.694;6.256;2023-08-08T00:38:34;14.50;99.90
3923;DHT22;1976;51.694;6.256;2023-08-08T00:41:00;14.40;99.90
3923;DHT22;1976;51.694;6.256;2023-08-08T00:43:26;14.30;99.90
3923;DHT22;1976;51.694;6.256;2023-08-08T00:45:52;14.30;99.90
3923;DHT22;1976;51.694;6.256;2023-08-08T00:48:18;14.30;99.90
3923;DHT22;1976;51.694;6.256;2023-08-08T00:50:45;14.20;99.90
3923;DHT22;1976;51.694;6.256;2023-08-08T00:53:13;14.10;99.90
3923;DHT22;1976;51.694;6.256;2023-08-08T00:55:39;14.20;99.90
3923;DHT22;1976;51.694;6.256;2023-08-08T00:58:05;14.20;99.90
3923;DHT22;1976;51.694;6.256;2023-08-08T01:00:31;14.20;99.90
3923;DHT22;1976;51.694;6.256;2023-08-08T01:02:57;14.30;99.90
3923;DHT22;1976;51.694;6.256;2023-08-08T01:05:22;14.40;99.90
3923;DHT22;1976;51.694;6.256;2023-08-08T01:10:33;14.40;99.90
3923;DHT22;1976;51.694;6.256;2023-08-08T01:13:08;14.40;99.90
3923;DHT22;1976;51.694;6.256;2023-08-08T01:15:35;14.50;99.90
3923;DHT22;1976;51.694;6.256;2023-08-08T01:18:05;14.50;99.90
3923;DHT22;1976;51.694;6.256;2023-08-08T01:20:32;14.50;99.90
3923;DHT22;1976;51.694;6.256;2023-08-08T01:23:28;14.50;99.90
3923;DHT22;1976;51.694;6.256;2023-08-08T01:25:57;14.50;99.90
3923;DHT22;1976;51.694;6.256;2023-08-08T01:28:23;14.40;99.90
3923;DHT22;1976;51.694;6.256;2023-08-08T01:30:50;14.40;99.90
3923;DHT22;1976;51.694;6.256;2023-08-08T01:33:16;14.40;99.90
3923;DHT22;1976;51.694;6.256;2023-08-08T01:35:45;14.40;99.90
3923;DHT22;1976;51.694;6.256;2023-08-08T01:38:19;14.50;99.90
3923;DHT22;1976;51.694;6.256;2023-08-08T01:40:46;14.60;99.90
3923;DHT22;1976;51.694;6.256;2023-08-08T01:43:12;14.60;99.90
3923;DHT22;1976;51.694;6.256;2023-08-08T01:45:40;14.60;99.90
3923;DHT22;1976;51.694;6.256;2023-08-08T01:48:11;14.60;99.90
3923;DHT22;1976;51.694;6.256;2023-08-08T01:50:37;14.60;99.90
3923;DHT22;1976;51.694;6.256;2023-08-08T01:53:03;14.60;99.90
3923;DHT22;1976;51.694;6.256;2023-08-08T01:55:30;14.60;99.90
3923;DHT22;1976;51.694;6.256;2023-08-08T01:57:56;14.50;99.90
3923;DHT22;1976;51.694;6.256;2023-08-08T02:00:22;14.60;99.90
3923;DHT22;1976;51.694;6.256;2023-08-08T02:02:48;14.70;99.90
3923;DHT22;1976;51.694;6.256;2023-08-08T02:05:13;14.70;99.90
3923;DHT22;1976;51.694;6.256;2023-08-08T02:07:39;14.70;99.90
3923;DHT22;1976;51.694;6.256;2023-08-08T02:10:05;14.70;99.90
3923;DHT22;1976;51.694;6.256;2023-08-08T02:12:31;14.80;99.90
3923;DHT22;1976;51.694;6.256;2023-08-08T02:14:57;14.80;99.90
3923;DHT22;1976;51.694;6.256;2023-08-08T02:17:24;14.80;99.90
3923;DHT22;1976;51.694;6.256;2023-08-08T02:19:49;14.80;99.90
3923;DHT22;1976;51.694;6.256;2023-08-08T02:22:15;14.80;99.90
3923;DHT22;1976;51.694;6.256;2023-08-08T02:24:40;14.80;99.90
3923;DHT22;1976;51.694;6.256;2023-08-08T02:27:06;14.90;99.90
3923;DHT22;1976;51.694;6.256;2023-08-08T02:29:32;15.00;99.90
3923;DHT22;1976;51.694;6.256;2023-08-08T02:31:57;15.00;99.90
3923;DHT22;1976;51.694;6.256;2023-08-08T02:34:23;14.90;99.90
3923;DHT22;1976;51.694;6.256;2023-08-08T02:36:49;14.90;99.90
3923;DHT22;1976;51.694;6.256;2023-08-08T02:39:14;14.80;99.90
3923;DHT22;1976;51.694;6.256;2023-08-08T02:41:40;14.60;99.90
3923;DHT22;1976;51.694;6.256;2023-08-08T02:44:06;14.50;99.90
3923;DHT22;1976;51.694;6.256;2023-08-08T02:46:32;14.40;99.90
3923;DHT22;1976;51.694;6.256;2023-08-08T02:48:57;14.30;99.90
3923;DHT22;1976;51.694;6.256;2023-08-08T02:51:23;14.30;99.90
3923;DHT22;1976;51.694;6.256;2023-08-08T02:53:49;14.30;99.90
3923;DHT22;1976;51.694;6.256;2023-08-08T02:56:14;14.20;99.90
3923;DHT22;1976;51.694;6.256;2023-08-08T02:58:40;14.20;99.90
3923;DHT22;1976;51.694;6.256;2023-08-08T03:01:05;14.20;99.90
3923;DHT22;1976;51.694;6.256;2023-08-08T03:03:31;14.10;99.90
3923;DHT22;1976;51.694;6.256;2023-08-08T03:05:57;14.20;99.90
3923;DHT22;1976;51.694;6.256;2023-08-08T03:08:22;14.20;99.90
3923;DHT22;1976;51.694;6.256;2023-08-08T03:10:48;14.10;99.90
3923;DHT22;1976;51.694;6.256;2023-08-08T03:13:13;14.20;99.90
3923;DHT22;1976;51.694;6.256;2023-08-08T03:15:39;14.20;99.90
3923;DHT22;1976;51.694;6.256;2023-08-08T03:18:06;14.10;99.90
3923;DHT22;1976;51.694;6.256;2023-08-08T03:20:31;14.20;99.90
3923;DHT22;1976;51.694;6.256;2023-08-08T03:22:57;14.20;99.90
3923;DHT22;1976;51.694;6.256;2023-08-08T03:25:22;14.20;99.90
3923;DHT22;1976;51.694;6.256;2023-08-08T03:27:48;14.20;99.90
3923;DHT22;1976;51.694;6.256;2023-08-08T03:30:14;14.20;99.90
3923;DHT22;1976;51.694;6.256;2023-08-08T03:32:40;14.20;99.90
3923;DHT22;1976;51.694;6.256;2023-08-08T03:35:06;14.30;99.90
3923;DHT22;1976;51.694;6.256;2023-08-08T03:37:31;14.30;99.90
3923;DHT22;1976;51.694;6.256;2023-08-08T03:39:57;14.40;99.90
3923;DHT22;1976;51.694;6.256;2023-08-08T03:42:23;14.40;99.90
3923;DHT22;1976;51.694;6.256;2023-08-08T03:44:48;14.40;99.90
3923;DHT22;1976;51.694;6.256;2023-08-08T03:47:14;14.40;99.90
3923;DHT22;1976;51.694;6.256;2023-08-08T03:49:40;14.40;99.90
3923;DHT22;1976;51.694;6.256;2023-08-08T03:52:05;14.50;99.90
3923;DHT22;1976;51.694;6.256;2023-08-08T03:54:31;14.40;99.90
3923;DHT22;1976;51.694;6.256;2023-08-08T03:56:57;14.40;99.90
3923;DHT22;1976;51.694;6.256;2023-08-08T03:59:22;14.40;99.90
3923;DHT22;1976;51.694;6.256;2023-08-08T04:01:48;14.50;99.90
3923;DHT22;1976;51.694;6.256;2023-08-08T04:04:14;14.40;99.90
3923;DHT22;1976;51.694;6.256;2023-08-08T04:06:40;14.40;99.90
3923;DHT22;1976;51.694;6.256;2023-08-08T04:09:05;14.40;99.90
3923;DHT22;1976;51.694;6.256;2023-08-08T04:11:32;14.40;99.90
3923;DHT22;1976;51.694;6.256;2023-08-08T04:13:57;14.40;99.90
3923;DHT22;1976;51.694;6.256;2023-08-08T04:16:23;14.40;99.90
3923;DHT22;1976;51.694;6.256;2023-08-08T04:18:50;14.40;99.90
3923;DHT22;1976;51.694;6.256;2023-08-08T04:21:15;14.40;99.90
3923;DHT22;1976;51.694;6.256;2023-08-08T04:23:41;14.40;99.90
3923;DHT22;1976;51.694;6.256;2023-08-08T04:26:06;14.40;99.90
3923;DHT22;1976;51.694;6.256;2023-08-08T04:28:32;14.40;99.90
3923;DHT22;1976;51.694;6.256;2023-08-08T04:30:58;14.40;99.90
3923;DHT22;1976;51.694;6.256;2023-08-08T04:33:24;14.50;99.90
3923;DHT22;1976;51.694;6.256;2023-08-08T04:35:49;14.40;99.90
3923;DHT22;1976;51.694;6.256;2023-08-08T04:38:15;14.40;99.90
3923;DHT22;1976;51.694;6.256;2023-08-08T04:40:41;14.40;99.90
3923;DHT22;1976;51.694;6.256;2023-08-08T04:43:07;14.40;99.90
3923;DHT22;1976;51.694;6.256;2023-08-08T04:45:32;14.40;99.90
3923;DHT22;1976;51.694;6.256;2023-08-08T04:47:58;14.30;99.90
3923;DHT22;1976;51.694;6.256;2023-08-08T04:50:24;14.30;99.90
3923;DHT22;1976;51.694;6.256;2023-08-08T04:52:50;14.30;99.90
3923;DHT22;1976;51.694;6.256;2023-08-08T04:55:15;14.40;99.90
3923;DHT22;1976;51.694;6.256;2023-08-08T04:57:41;14.40;99.90
3923;DHT22;1976;51.694;6.256;2023-08-08T05:00:07;14.40;99.90
3923;DHT22;1976;51.694;6.256;2023-08-08T05:02:35;14.40;99.90
3923;DHT22;1976;51.694;6.256;2023-08-08T05:05:01;14.30;99.90
3923;DHT22;1976;51.694;6.256;2023-08-08T05:07:27;14.30;99.90
3923;DHT22;1976;51.694;6.256;2023-08-08T05:09:53;14.30;99.90
3923;DHT22;1976;51.694;6.256;2023-08-08T05:12:18;14.30;99.90
3923;DHT22;1976;51.694;6.256;2023-08-08T05:14:44;14.20;99.90
3923;DHT22;1976;51.694;6.256;2023-08-08T05:17:09;14.30;99.90
3923;DHT22;1976;51.694;6.256;2023-08-08T05:19:35;14.30;99.90
3923;DHT22;1976;51.694;6.256;2023-08-08T05:22:01;14.30;99.90
3923;DHT22;1976;51.694;6.256;2023-08-08T05:24:26;14.30;99.90
3923;DHT22;1976;51.694;6.256;2023-08-08T05:26:52;14.30;99.90
3923;DHT22;1976;51.694;6.256;2023-08-08T05:29:19;14.40;99.90
3923;DHT22;1976;51.694;6.256;2023-08-08T05:31:46;14.40;99.90
3923;DHT22;1976;51.694;6.256;2023-08-08T05:34:12;14.40;99.90
3923;DHT22;1976;51.694;6.256;2023-08-08T05:36:38;14.50;99.90
3923;DHT22;1976;51.694;6.256;2023-08-08T05:39:04;14.60;99.90
3923;DHT22;1976;51.694;6.256;2023-08-08T05:41:29;14.60;99.90
3923;DHT22;1976;51.694;6.256;2023-08-08T05:43:55;14.60;99.90
3923;DHT22;1976;51.694;6.256;2023-08-08T05:46:20;14.60;99.90
3923;DHT22;1976;51.694;6.256;2023-08-08T05:48:46;14.60;99.90
3923;DHT22;1976;51.694;6.256;2023-08-08T05:51:12;14.50;99.90
3923;DHT22;1976;51.694;6.256;2023-08-08T05:53:37;14.40;99.90
3923;DHT22;1976;51.694;6.256;2023-08-08T05:56:03;14.60;99.90
3923;DHT22;1976;51.694;6.256;2023-08-08T05:58:29;14.70;99.90
3923;DHT22;1976;51.694;6.256;2023-08-08T06:00:55;14.80;99.90
3923;DHT22;1976;51.694;6.256;2023-08-08T06:03:20;14.90;99.90
3923;DHT22;1976;51.694;6.256;2023-08-08T06:05:46;14.90;99.90
3923;DHT22;1976;51.694;6.256;2023-08-08T06:08:11;15.00;99.90
3923;DHT22;1976;51.694;6.256;2023-08-08T06:10:39;15.00;99.90
3923;DHT22;1976;51.694;6.256;2023-08-08T06:13:04;15.10;99.90
3923;DHT22;1976;51.694;6.256;2023-08-08T06:15:30;15.30;99.90
3923;DHT22;1976;51.694;6.256;2023-08-08T06:17:57;15.20;99.90
3923;DHT22;1976;51.694;6.256;2023-08-08T06:20:22;15.30;99.90
3923;DHT22;1976;51.694;6.256;2023-08-08T06:22:49;15.40;99.90
3923;DHT22;1976;51.694;6.256;2023-08-08T06:25:14;15.50;99.90
3923;DHT22;1976;51.694;6.256;2023-08-08T06:27:40;15.60;99.90
3923;DHT22;1976;51.694;6.256;2023-08-08T06:30:06;15.60;99.90
3923;DHT22;1976;51.694;6.256;2023-08-08T06:32:33;15.70;99.90
3923;DHT22;1976;51.694;6.256;2023-08-08T06:34:59;15.80;99.90
3923;DHT22;1976;51.694;6.256;2023-08-08T06:37:24;15.90;99.90
3923;DHT22;1976;51.694;6.256;2023-08-08T06:39:50;15.90;99.90
3923;DHT22;1976;51.694;6.256;2023-08-08T06:42:16;16.00;99.90
3923;DHT22;1976;51.694;6.256;2023-08-08T06:44:43;16.00;99.90
3923;DHT22;1976;51.694;6.256;2023-08-08T06:47:09;16.10;99.90
3923;DHT22;1976;51.694;6.256;2023-08-08T06:49:35;16.20;99.90
3923;DHT22;1976;51.694;6.256;2023-08-08T06:52:00;16.40;99.90
3923;DHT22;1976;51.694;6.256;2023-08-08T06:54:26;16.60;99.90
3923;DHT22;1976;51.694;6.256;2023-08-08T06:56:53;16.70;99.90
3923;DHT22;1976;51.694;6.256;2023-08-08T06:59:21;16.70;99.90
3923;DHT22;1976;51.694;6.256;2023-08-08T07:01:48;16.80;99.90
3923;DHT22;1976;51.694;6.256;2023-08-08T07:04:14;16.70;99.90
3923;DHT22;1976;51.694;6.256;2023-08-08T07:06:39;16.80;99.90
3923;DHT22;1976;51.694;6.256;2023-08-08T07:09:05;16.80;99.90
3923;DHT22;1976;51.694;6.256;2023-08-08T07:11:31;16.90;99.90
3923;DHT22;1976;51.694;6.256;2023-08-08T07:13:57;17.00;99.90
3923;DHT22;1976;51.694;6.256;2023-08-08T07:16:22;17.20;99.90
3923;DHT22;1976;51.694;6.256;2023-08-08T07:18:48;17.30;99.90
3923;DHT22;1976;51.694;6.256;2023-08-08T07:21:13;17.30;99.90
3923;DHT22;1976;51.694;6.256;2023-08-08T07:23:40;17.30;99.90
3923;DHT22;1976;51.694;6.256;2023-08-08T07:26:06;17.30;99.90
3923;DHT22;1976;51.694;6.256;2023-08-08T07:28:31;17.50;99.90
3923;DHT22;1976;51.694;6.256;2023-08-08T07:30:58;17.70;99.90
3923;DHT22;1976;51.694;6.256;2023-08-08T07:33:23;18.00;99.90
3923;DHT22;1976;51.694;6.256;2023-08-08T07:35:49;18.30;99.90
3923;DHT22;1976;51.694;6.256;2023-08-08T07:38:15;18.30;99.90
3923;DHT22;1976;51.694;6.256;2023-08-08T07:40:41;18.40;99.90
3923;DHT22;1976;51.694;6.256;2023-08-08T07:43:07;18.40;99.90
3923;DHT22;1976;51.694;6.256;2023-08-08T07:45:32;18.30;99.90
3923;DHT22;1976;51.694;6.256;2023-08-08T07:47:58;18.30;99.90
3923;DHT22;1976;51.694;6.256;2023-08-08T07:50:23;18.40;99.90
3923;DHT22;1976;51.694;6.256;2023-08-08T07:52:49;18.50;99.90
3923;DHT22;1976;51.694;6.256;2023-08-08T07:55:15;18.50;99.90
3923;DHT22;1976;51.694;6.256;2023-08-08T07:57:40;18.60;99.90
3923;DHT22;1976;51.694;6.256;2023-08-08T08:00:06;18.60;99.90
3923;DHT22;1976;51.694;6.256;2023-08-08T08:02:36;18.70;99.90
3923;DHT22;1976;51.694;6.256;2023-08-08T08:05:03;18.80;99.90
3923;DHT22;1976;51.694;6.256;2023-08-08T08:07:31;18.70;99.90
3923;DHT22;1976;51.694;6.256;2023-08-08T08:09:58;18.90;99.90
3923;DHT22;1976;51.694;6.256;2023-08-08T08:12:23;19.00;99.90
3923;DHT22;1976;51.694;6.256;2023-08-08T08:14:49;19.30;99.90
3923;DHT22;1976;51.694;6.256;2023-08-08T08:17:14;19.30;99.90
3923;DHT22;1976;51.694;6.256;2023-08-08T08:19:40;19.50;99.90
3923;DHT22;1976;51.694;6.256;2023-08-08T08:22:06;19.60;99.90
3923;DHT22;1976;51.694;6.256;2023-08-08T08:24:31;19.60;99.90
3923;DHT22;1976;51.694;6.256;2023-08-08T08:26:57;19.60;99.90
3923;DHT22;1976;51.694;6.256;2023-08-08T08:29:22;19.60;99.90
3923;DHT22;1976;51.694;6.256;2023-08-08T08:31:48;19.60;99.90
3923;DHT22;1976;51.694;6.256;2023-08-08T08:34:14;19.60;99.90
3923;DHT22;1976;51.694;6.256;2023-08-08T08:36:39;19.80;99.90
3923;DHT22;1976;51.694;6.256;2023-08-08T08:39:05;20.00;99.90
3923;DHT22;1976;51.694;6.256;2023-08-08T08:41:31;20.90;99.90
3923;DHT22;1976;51.694;6.256;2023-08-08T08:43:59;21.60;99.20
3923;DHT22;1976;51.694;6.256;2023-08-08T08:46:26;22.00;99.50
3923;DHT22;1976;51.694;6.256;2023-08-08T08:48:54;22.00;99.20
3923;DHT22;1976;51.694;6.256;2023-08-08T08:51:21;22.00;99.20
3923;DHT22;1976;51.694;6.256;2023-08-08T08:53:47;21.70;98.10
3923;DHT22;1976;51.694;6.256;2023-08-08T08:56:16;21.60;99.60
3923;DHT22;1976;51.694;6.256;2023-08-08T08:58:42;21.40;99.90
3923;DHT22;1976;51.694;6.256;2023-08-08T09:01:09;21.50;99.90
3923;DHT22;1976;51.694;6.256;2023-08-08T09:03:35;21.50;99.00
3923;DHT22;1976;51.694;6.256;2023-08-08T09:06:02;21.40;98.90
3923;DHT22;1976;51.694;6.256;2023-08-08T09:08:28;21.30;99.30
3923;DHT22;1976;51.694;6.256;2023-08-08T09:10:55;21.40;98.50
3923;DHT22;1976;51.694;6.256;2023-08-08T09:13:22;21.60;98.00
3923;DHT22;1976;51.694;6.256;2023-08-08T09:15:51;21.60;96.90
3923;DHT22;1976;51.694;6.256;2023-08-08T09:18:17;21.60;97.60
3923;DHT22;1976;51.694;6.256;2023-08-08T09:20:49;22.00;97.40
3923;DHT22;1976;51.694;6.256;2023-08-08T09:23:15;22.40;96.20
3923;DHT22;1976;51.694;6.256;2023-08-08T09:25:40;22.50;95.00
3923;DHT22;1976;51.694;6.256;2023-08-08T09:28:06;22.70;94.20
3923;DHT22;1976;51.694;6.256;2023-08-08T09:30:32;22.80;95.20
3923;DHT22;1976;51.694;6.256;2023-08-08T09:32:59;23.30;95.80
3923;DHT22;1976;51.694;6.256;2023-08-08T09:35:25;23.80;93.50
3923;DHT22;1976;51.694;6.256;2023-08-08T09:37:53;23.70;92.50
3923;DHT22;1976;51.694;6.256;2023-08-08T09:40:19;24.00;92.90
3923;DHT22;1976;51.694;6.256;2023-08-08T09:42:47;24.20;92.70
3923;DHT22;1976;51.694;6.256;2023-08-08T09:45:14;23.40;91.90
3923;DHT22;1976;51.694;6.256;2023-08-08T09:47:40;23.00;93.20
3923;DHT22;1976;51.694;6.256;2023-08-08T09:50:06;23.40;93.40
3923;DHT22;1976;51.694;6.256;2023-08-08T09:52:33;23.60;93.70
3923;DHT22;1976;51.694;6.256;2023-08-08T09:55:00;23.20;93.00
3923;DHT22;1976;51.694;6.256;2023-08-08T09:57:26;22.40;94.00
3923;DHT22;1976;51.694;6.256;2023-08-08T09:59:52;22.20;95.10
3923;DHT22;1976;51.694;6.256;2023-08-08T10:02:18;23.50;94.40
3923;DHT22;1976;51.694;6.256;2023-08-08T10:04:47;24.70;93.50
3923;DHT22;1976;51.694;6.256;2023-08-08T10:07:13;26.00;92.10
3923;DHT22;1976;51.694;6.256;2023-08-08T10:09:39;27.20;91.20
3923;DHT22;1976;51.694;6.256;2023-08-08T10:12:07;28.50;90.60
3923;DHT22;1976;51.694;6.256;2023-08-08T10:14:36;29.70;85.30
3923;DHT22;1976;51.694;6.256;2023-08-08T10:17:04;29.20;83.80
3923;DHT22;1976;51.694;6.256;2023-08-08T10:19:30;28.30;85.30
3923;DHT22;1976;51.694;6.256;2023-08-08T10:22:00;27.30;87.00
3923;DHT22;1976;51.694;6.256;2023-08-08T10:24:35;27.60;88.00
3923;DHT22;1976;51.694;6.256;2023-08-08T10:27:02;27.50;87.00
3923;DHT22;1976;51.694;6.256;2023-08-08T10:29:31;25.70;87.80
3923;DHT22;1976;51.694;6.256;2023-08-08T10:32:03;24.50;90.10
3923;DHT22;1976;51.694;6.256;2023-08-08T10:34:43;23.00;94.80
3923;DHT22;1976;51.694;6.256;2023-08-08T10:37:10;21.40;95.50
3923;DHT22;1976;51.694;6.256;2023-08-08T10:39:37;20.60;97.10
3923;DHT22;1976;51.694;6.256;2023-08-08T10:42:06;20.60;97.70
3923;DHT22;1976;51.694;6.256;2023-08-08T10:44:31;21.60;98.30
3923;DHT22;1976;51.694;6.256;2023-08-08T10:47:05;23.70;96.00
3923;DHT22;1976;51.694;6.256;2023-08-08T10:49:31;24.50;94.00
3923;DHT22;1976;51.694;6.256;2023-08-08T10:52:02;24.10;93.10
3923;DHT22;1976;51.694;6.256;2023-08-08T10:54:28;23.40;93.40
3923;DHT22;1976;51.694;6.256;2023-08-08T10:56:57;23.50;92.50
3923;DHT22;1976;51.694;6.256;2023-08-08T10:59:27;24.80;91.10
3923;DHT22;1976;51.694;6.256;2023-08-08T11:01:55;26.10;90.30
3923;DHT22;1976;51.694;6.256;2023-08-08T11:04:23;26.90;88.80
3923;DHT22;1976;51.694;6.256;2023-08-08T11:06:49;26.90;85.80
3923;DHT22;1976;51.694;6.256;2023-08-08T11:09:16;26.00;87.00
3923;DHT22;1976;51.694;6.256;2023-08-08T11:11:44;26.60;86.50
3923;DHT22;1976;51.694;6.256;2023-08-08T11:14:11;27.40;85.60
3923;DHT22;1976;51.694;6.256;2023-08-08T11:16:37;27.60;86.10
3923;DHT22;1976;51.694;6.256;2023-08-08T11:19:03;27.50;83.50
3923;DHT22;1976;51.694;6.256;2023-08-08T11:21:29;26.90;83.80
3923;DHT22;1976;51.694;6.256;2023-08-08T11:23:55;26.40;85.80
3923;DHT22;1976;51.694;6.256;2023-08-08T11:26:20;25.90;87.60
3923;DHT22;1976;51.694;6.256;2023-08-08T11:28:50;25.00;88.70
3923;DHT22;1976;51.694;6.256;2023-08-08T11:31:16;24.00;90.40
3923;DHT22;1976;51.694;6.256;2023-08-08T11:33:41;23.40;90.70
3923;DHT22;1976;51.694;6.256;2023-08-08T11:36:07;23.50;91.00
3923;DHT22;1976;51.694;6.256;2023-08-08T11:38:33;24.50;91.00
3923;DHT22;1976;51.694;6.256;2023-08-08T11:40:59;25.80;89.20
3923;DHT22;1976;51.694;6.256;2023-08-08T11:43:25;26.90;88.00
3923;DHT22;1976;51.694;6.256;2023-08-08T11:45:52;27.80;83.50
3923;DHT22;1976;51.694;6.256;2023-08-08T11:48:22;27.90;83.90
3923;DHT22;1976;51.694;6.256;2023-08-08T11:50:47;28.20;80.50
3923;DHT22;1976;51.694;6.256;2023-08-08T11:53:13;27.00;83.40
3923;DHT22;1976;51.694;6.256;2023-08-08T11:55:39;26.40;83.40
3923;DHT22;1976;51.694;6.256;2023-08-08T11:58:06;25.70;85.90
3923;DHT22;1976;51.694;6.256;2023-08-08T12:00:32;25.10;87.60
3923;DHT22;1976;51.694;6.256;2023-08-08T12:03:00;24.80;88.50
3923;DHT22;1976;51.694;6.256;2023-08-08T12:05:26;24.40;90.00
3923;DHT22;1976;51.694;6.256;2023-08-08T12:07:53;23.90;89.40
3923;DHT22;1976;51.694;6.256;2023-08-08T12:10:22;23.50;90.50
3923;DHT22;1976;51.694;6.256;2023-08-08T12:12:56;23.20;90.60
3923;DHT22;1976;51.694;6.256;2023-08-08T12:15:24;23.10;91.00
3923;DHT22;1976;51.694;6.256;2023-08-08T12:17:53;23.60;90.90
3923;DHT22;1976;51.694;6.256;2023-08-08T12:20:19;24.80;90.20
3923;DHT22;1976;51.694;6.256;2023-08-08T12:22:44;24.90;89.10
3923;DHT22;1976;51.694;6.256;2023-08-08T12:25:10;24.30;89.60
3923;DHT22;1976;51.694;6.256;2023-08-08T12:27:37;23.60;90.80
3923;DHT22;1976;51.694;6.256;2023-08-08T12:30:05;23.10;91.30
3923;DHT22;1976;51.694;6.256;2023-08-08T12:32:31;22.60;92.20
3923;DHT22;1976;51.694;6.256;2023-08-08T12:34:58;22.20;92.70
3923;DHT22;1976;51.694;6.256;2023-08-08T12:37:24;21.90;93.70
3923;DHT22;1976;51.694;6.256;2023-08-08T12:39:50;21.90;93.90
3923;DHT22;1976;51.694;6.256;2023-08-08T12:42:16;22.30;93.80
3923;DHT22;1976;51.694;6.256;2023-08-08T12:44:42;22.70;93.00
3923;DHT22;1976;51.694;6.256;2023-08-08T12:47:08;22.70;92.90
3923;DHT22;1976;51.694;6.256;2023-08-08T12:49:34;22.70;92.80
3923;DHT22;1976;51.694;6.256;2023-08-08T12:51:59;22.70;92.90
3923;DHT22;1976;51.694;6.256;2023-08-08T12:54:25;22.50;92.50
3923;DHT22;1976;51.694;6.256;2023-08-08T12:56:51;22.30;93.20
3923;DHT22;1976;51.694;6.256;2023-08-08T12:59:16;21.90;93.60
3923;DHT22;1976;51.694;6.256;2023-08-08T13:01:42;21.80;94.00
3923;DHT22;1976;51.694;6.256;2023-08-08T13:04:08;22.60;94.60
3923;DHT22;1976;51.694;6.256;2023-08-08T13:06:33;23.80;93.50
3923;DHT22;1976;51.694;6.256;2023-08-08T13:08:59;24.10;91.70
3923;DHT22;1976;51.694;6.256;2023-08-08T13:11:26;23.90;91.30
3923;DHT22;1976;51.694;6.256;2023-08-08T13:13:52;23.70;92.10
3923;DHT22;1976;51.694;6.256;2023-08-08T13:16:18;23.60;92.50
3923;DHT22;1976;51.694;6.256;2023-08-08T13:18:43;24.70;93.00
3923;DHT22;1976;51.694;6.256;2023-08-08T13:21:09;26.10;90.20
3923;DHT22;1976;51.694;6.256;2023-08-08T13:23:36;26.70;88.70
3923;DHT22;1976;51.694;6.256;2023-08-08T13:26:02;26.80;86.70
3923;DHT22;1976;51.694;6.256;2023-08-08T13:28:29;26.30;85.90
3923;DHT22;1976;51.694;6.256;2023-08-08T13:30:55;25.80;87.00
3923;DHT22;1976;51.694;6.256;2023-08-08T13:33:20;25.40;86.60
3923;DHT22;1976;51.694;6.256;2023-08-08T13:35:46;25.20;87.20
3923;DHT22;1976;51.694;6.256;2023-08-08T13:38:12;25.00;84.70
3923;DHT22;1976;51.694;6.256;2023-08-08T13:40:41;24.60;84.10
3923;DHT22;1976;51.694;6.256;2023-08-08T13:43:06;24.30;85.80
3923;DHT22;1976;51.694;6.256;2023-08-08T13:45:32;24.70;86.10
3923;DHT22;1976;51.694;6.256;2023-08-08T13:47:58;25.20;84.40
3923;DHT22;1976;51.694;6.256;2023-08-08T13:50:23;26.00;84.70
3923;DHT22;1976;51.694;6.256;2023-08-08T13:52:49;27.10;82.80
3923;DHT22;1976;51.694;6.256;2023-08-08T13:55:14;27.30;78.60
3923;DHT22;1976;51.694;6.256;2023-08-08T13:57:40;27.70;76.90
3923;DHT22;1976;51.694;6.256;2023-08-08T14:00:06;28.20;78.80
3923;DHT22;1976;51.694;6.256;2023-08-08T14:02:32;28.90;75.10
3923;DHT22;1976;51.694;6.256;2023-08-08T14:04:58;28.50;72.90
3923;DHT22;1976;51.694;6.256;2023-08-08T14:07:24;28.00;74.00
3923;DHT22;1976;51.694;6.256;2023-08-08T14:09:49;28.20;75.00
3923;DHT22;1976;51.694;6.256;2023-08-08T14:12:15;28.70;72.90
3923;DHT22;1976;51.694;6.256;2023-08-08T14:14:42;28.80;71.00
3923;DHT22;1976;51.694;6.256;2023-08-08T14:17:07;28.50;71.80
3923;DHT22;1976;51.694;6.256;2023-08-08T14:19:33;28.00;72.40
3923;DHT22;1976;51.694;6.256;2023-08-08T14:21:59;27.40;74.00
3923;DHT22;1976;51.694;6.256;2023-08-08T14:24:24;27.10;76.40
3923;DHT22;1976;51.694;6.256;2023-08-08T14:26:50;26.90;76.90
3923;DHT22;1976;51.694;6.256;2023-08-08T14:29:16;26.60;76.80
3923;DHT22;1976;51.694;6.256;2023-08-08T14:31:41;26.20;76.70
3923;DHT22;1976;51.694;6.256;2023-08-08T14:34:07;25.80;79.00
3923;DHT22;1976;51.694;6.256;2023-08-08T14:36:33;25.50;78.80
3923;DHT22;1976;51.694;6.256;2023-08-08T14:38:58;25.90;78.80
3923;DHT22;1976;51.694;6.256;2023-08-08T14:41:24;25.80;79.30
3923;DHT22;1976;51.694;6.256;2023-08-08T14:43:49;25.40;80.10
3923;DHT22;1976;51.694;6.256;2023-08-08T14:46:15;25.30;79.50
3923;DHT22;1976;51.694;6.256;2023-08-08T14:48:41;25.20;79.40
3923;DHT22;1976;51.694;6.256;2023-08-08T14:51:06;25.40;79.90
3923;DHT22;1976;51.694;6.256;2023-08-08T14:53:32;25.70;79.30
3923;DHT22;1976;51.694;6.256;2023-08-08T14:55:57;25.70;78.70
3923;DHT22;1976;51.694;6.256;2023-08-08T14:58:23;25.30;76.80
3923;DHT22;1976;51.694;6.256;2023-08-08T15:00:49;25.30;78.20
3923;DHT22;1976;51.694;6.256;2023-08-08T15:03:14;25.50;77.90
3923;DHT22;1976;51.694;6.256;2023-08-08T15:05:40;25.50;77.80
3923;DHT22;1976;51.694;6.256;2023-08-08T15:08:06;25.50;77.20
3923;DHT22;1976;51.694;6.256;2023-08-08T15:10:32;25.70;78.90
3923;DHT22;1976;51.694;6.256;2023-08-08T15:12:58;26.20;77.30
3923;DHT22;1976;51.694;6.256;2023-08-08T15:15:24;26.50;76.80
3923;DHT22;1976;51.694;6.256;2023-08-08T15:17:51;26.80;75.50
3923;DHT22;1976;51.694;6.256;2023-08-08T15:20:17;26.80;75.90
3923;DHT22;1976;51.694;6.256;2023-08-08T15:22:43;26.40;74.90
3923;DHT22;1976;51.694;6.256;2023-08-08T15:25:09;25.90;75.70
3923;DHT22;1976;51.694;6.256;2023-08-08T15:27:34;25.60;77.00
3923;DHT22;1976;51.694;6.256;2023-08-08T15:30:00;25.40;77.00
3923;DHT22;1976;51.694;6.256;2023-08-08T15:32:26;25.20;79.20
3923;DHT22;1976;51.694;6.256;2023-08-08T15:34:52;25.50;78.80
3923;DHT22;1976;51.694;6.256;2023-08-08T15:37:18;25.40;78.30
3923;DHT22;1976;51.694;6.256;2023-08-08T15:39:43;25.50;77.60
3923;DHT22;1976;51.694;6.256;2023-08-08T15:42:09;25.40;79.10
3923;DHT22;1976;51.694;6.256;2023-08-08T15:44:34;25.60;78.80
3923;DHT22;1976;51.694;6.256;2023-08-08T15:47:00;25.60;78.00
3923;DHT22;1976;51.694;6.256;2023-08-08T15:49:26;25.40;78.00
3923;DHT22;1976;51.694;6.256;2023-08-08T15:51:51;25.10;79.10
3923;DHT22;1976;51.694;6.256;2023-08-08T15:54:25;24.70;79.80
3923;DHT22;1976;51.694;6.256;2023-08-08T15:56:50;24.40;81.20
3923;DHT22;1976;51.694;6.256;2023-08-08T15:59:17;24.20;81.70